sensor_id;sensor_type;location;lat;lon;timestamp;P1;durP1;ratioP1;P2;durP2;ratioP2
56999;SDS011;42891;50.006;21.964;2022-07-23T00:00:53;14.82;;;11.55;;
56999;SDS011;42891;50.006;21.964;2022-07-23T00:04:54;16.10;;;11.32;;
56999;SDS011;42891;50.006;21.964;2022-07-23T00:08:55;15.70;;;11.32;;
56999;SDS011;42891;50.006;21.964;2022-07-23T00:12:56;18.90;;;12.40;;
56999;SDS011;42891;50.006;21.964;2022-07-23T00:16:56;14.68;;;11.23;;
56999;SDS011;42891;50.006;21.964;2022-07-23T00:20:56;15.00;;;11.97;;
56999;SDS011;42891;50.006;21.964;2022-07-23T00:24:57;13.40;;;11.63;;
56999;SDS011;42891;50.006;21.964;2022-07-23T00:28:57;17.77;;;11.10;;
56999;SDS011;42891;50.006;21.964;2022-07-23T00:32:58;16.57;;;11.60;;
56999;SDS011;42891;50.006;21.964;2022-07-23T00:37:03;19.58;;;11.18;;
56999;SDS011;42891;50.006;21.964;2022-07-23T00:41:03;16.53;;;11.70;;
56999;SDS011;42891;50.006;21.964;2022-07-23T00:45:04;17.40;;;11.73;;
56999;SDS011;42891;50.006;21.964;2022-07-23T00:49:04;16.80;;;11.57;;
56999;SDS011;42891;50.006;21.964;2022-07-23T00:53:05;16.70;;;11.60;;
56999;SDS011;42891;50.006;21.964;2022-07-23T00:57:05;19.38;;;11.93;;
56999;SDS011;42891;50.006;21.964;2022-07-23T01:01:05;15.35;;;11.65;;
56999;SDS011;42891;50.006;21.964;2022-07-23T01:05:06;18.58;;;12.05;;
56999;SDS011;42891;50.006;21.964;2022-07-23T01:09:07;23.40;;;12.57;;
56999;SDS011;42891;50.006;21.964;2022-07-23T01:13:08;14.38;;;11.50;;
56999;SDS011;42891;50.006;21.964;2022-07-23T01:17:09;15.85;;;11.98;;
56999;SDS011;42891;50.006;21.964;2022-07-23T01:21:11;15.75;;;12.13;;
56999;SDS011;42891;50.006;21.964;2022-07-23T01:25:15;17.48;;;11.18;;
56999;SDS011;42891;50.006;21.964;2022-07-23T01:29:16;16.80;;;11.85;;
56999;SDS011;42891;50.006;21.964;2022-07-23T01:33:16;14.65;;;11.02;;
56999;SDS011;42891;50.006;21.964;2022-07-23T01:37:16;15.30;;;11.53;;
56999;SDS011;42891;50.006;21.964;2022-07-23T01:41:17;18.47;;;12.07;;
56999;SDS011;42891;50.006;21.964;2022-07-23T01:45:17;13.88;;;11.20;;
56999;SDS011;42891;50.006;21.964;2022-07-23T01:49:18;15.57;;;11.38;;
56999;SDS011;42891;50.006;21.964;2022-07-23T01:53:18;14.10;;;11.68;;
56999;SDS011;42891;50.006;21.964;2022-07-23T01:57:19;16.35;;;11.35;;
56999;SDS011;42891;50.006;21.964;2022-07-23T02:01:19;16.53;;;12.43;;
56999;SDS011;42891;50.006;21.964;2022-07-23T02:05:19;15.10;;;11.75;;
56999;SDS011;42891;50.006;21.964;2022-07-23T02:09:20;16.98;;;12.52;;
56999;SDS011;42891;50.006;21.964;2022-07-23T02:13:20;14.73;;;11.52;;
56999;SDS011;42891;50.006;21.964;2022-07-23T02:17:20;18.57;;;13.23;;
56999;SDS011;42891;50.006;21.964;2022-07-23T02:21:21;18.70;;;13.57;;
56999;SDS011;42891;50.006;21.964;2022-07-23T02:25:21;20.05;;;12.02;;
56999;SDS011;42891;50.006;21.964;2022-07-23T02:29:21;16.60;;;11.47;;
56999;SDS011;42891;50.006;21.964;2022-07-23T02:33:21;16.40;;;11.23;;
56999;SDS011;42891;50.006;21.964;2022-07-23T02:37:22;17.80;;;11.37;;
56999;SDS011;42891;50.006;21.964;2022-07-23T02:41:22;15.67;;;11.20;;
56999;SDS011;42891;50.006;21.964;2022-07-23T02:45:23;13.02;;;10.57;;
56999;SDS011;42891;50.006;21.964;2022-07-23T02:49:24;16.80;;;10.90;;
56999;SDS011;42891;50.006;21.964;2022-07-23T02:53:24;13.25;;;10.40;;
56999;SDS011;42891;50.006;21.964;2022-07-23T02:57:24;13.70;;;10.03;;
56999;SDS011;42891;50.006;21.964;2022-07-23T03:01:25;14.60;;;10.35;;
56999;SDS011;42891;50.006;21.964;2022-07-23T03:05:25;15.05;;;11.10;;
56999;SDS011;42891;50.006;21.964;2022-07-23T03:09:26;15.03;;;10.17;;
56999;SDS011;42891;50.006;21.964;2022-07-23T03:13:26;13.57;;;9.80;;
56999;SDS011;42891;50.006;21.964;2022-07-23T03:17:26;12.90;;;9.50;;
56999;SDS011;42891;50.006;21.964;2022-07-23T03:21:26;15.83;;;9.80;;
56999;SDS011;42891;50.006;21.964;2022-07-23T03:25:27;14.67;;;10.07;;
56999;SDS011;42891;50.006;21.964;2022-07-23T03:29:27;20.55;;;10.48;;
56999;SDS011;42891;50.006;21.964;2022-07-23T03:33:27;14.20;;;10.13;;
56999;SDS011;42891;50.006;21.964;2022-07-23T03:37:28;23.20;;;10.27;;
56999;SDS011;42891;50.006;21.964;2022-07-23T03:41:28;11.95;;;9.57;;
56999;SDS011;42891;50.006;21.964;2022-07-23T03:45:29;13.68;;;9.93;;
56999;SDS011;42891;50.006;21.964;2022-07-23T03:49:30;12.93;;;9.05;;
56999;SDS011;42891;50.006;21.964;2022-07-23T03:53:31;14.02;;;10.27;;
56999;SDS011;42891;50.006;21.964;2022-07-23T03:57:31;14.68;;;9.45;;
56999;SDS011;42891;50.006;21.964;2022-07-23T04:01:32;13.25;;;9.65;;
56999;SDS011;42891;50.006;21.964;2022-07-23T04:05:32;12.68;;;9.38;;
56999;SDS011;42891;50.006;21.964;2022-07-23T04:09:33;14.48;;;9.45;;
56999;SDS011;42891;50.006;21.964;2022-07-23T04:13:34;11.30;;;9.15;;
56999;SDS011;42891;50.006;21.964;2022-07-23T04:17:34;12.10;;;8.98;;
56999;SDS011;42891;50.006;21.964;2022-07-23T04:21:34;20.63;;;10.10;;
56999;SDS011;42891;50.006;21.964;2022-07-23T04:25:35;13.50;;;9.63;;
56999;SDS011;42891;50.006;21.964;2022-07-23T04:29:36;12.68;;;8.65;;
56999;SDS011;42891;50.006;21.964;2022-07-23T04:33:36;15.77;;;9.73;;
56999;SDS011;42891;50.006;21.964;2022-07-23T04:37:37;13.30;;;9.30;;
56999;SDS011;42891;50.006;21.964;2022-07-23T04:41:37;11.73;;;8.83;;
56999;SDS011;42891;50.006;21.964;2022-07-23T04:45:37;13.27;;;8.52;;
56999;SDS011;42891;50.006;21.964;2022-07-23T04:49:37;15.47;;;8.30;;
56999;SDS011;42891;50.006;21.964;2022-07-23T04:53:38;15.02;;;8.75;;
56999;SDS011;42891;50.006;21.964;2022-07-23T04:57:38;12.48;;;8.73;;
56999;SDS011;42891;50.006;21.964;2022-07-23T05:01:39;11.87;;;8.63;;
56999;SDS011;42891;50.006;21.964;2022-07-23T05:05:39;10.47;;;8.37;;
56999;SDS011;42891;50.006;21.964;2022-07-23T05:09:39;13.53;;;8.47;;
56999;SDS011;42891;50.006;21.964;2022-07-23T05:13:39;12.27;;;9.03;;
56999;SDS011;42891;50.006;21.964;2022-07-23T05:17:40;12.33;;;8.23;;
56999;SDS011;42891;50.006;21.964;2022-07-23T05:21:40;13.00;;;8.87;;
56999;SDS011;42891;50.006;21.964;2022-07-23T05:25:40;11.10;;;8.17;;
56999;SDS011;42891;50.006;21.964;2022-07-23T05:29:41;11.23;;;8.30;;
56999;SDS011;42891;50.006;21.964;2022-07-23T05:33:41;12.63;;;8.83;;
56999;SDS011;42891;50.006;21.964;2022-07-23T05:37:41;14.53;;;8.87;;
56999;SDS011;42891;50.006;21.964;2022-07-23T05:41:41;11.63;;;9.00;;
56999;SDS011;42891;50.006;21.964;2022-07-23T05:45:42;13.60;;;8.43;;
56999;SDS011;42891;50.006;21.964;2022-07-23T05:49:42;14.93;;;8.83;;
56999;SDS011;42891;50.006;21.964;2022-07-23T05:53:42;11.10;;;7.90;;
56999;SDS011;42891;50.006;21.964;2022-07-23T05:57:42;13.40;;;8.63;;
56999;SDS011;42891;50.006;21.964;2022-07-23T06:01:43;13.88;;;8.65;;
56999;SDS011;42891;50.006;21.964;2022-07-23T06:05:43;14.77;;;9.10;;
56999;SDS011;42891;50.006;21.964;2022-07-23T06:09:43;9.63;;;8.43;;
56999;SDS011;42891;50.006;21.964;2022-07-23T06:13:44;15.17;;;8.50;;
56999;SDS011;42891;50.006;21.964;2022-07-23T06:17:44;18.67;;;8.73;;
56999;SDS011;42891;50.006;21.964;2022-07-23T06:21:44;12.03;;;8.53;;
56999;SDS011;42891;50.006;21.964;2022-07-23T06:25:45;15.33;;;8.13;;
56999;SDS011;42891;50.006;21.964;2022-07-23T06:29:45;12.23;;;8.67;;
56999;SDS011;42891;50.006;21.964;2022-07-23T06:33:45;14.65;;;9.32;;
56999;SDS011;42891;50.006;21.964;2022-07-23T06:37:46;11.93;;;8.17;;
56999;SDS011;42891;50.006;21.964;2022-07-23T06:41:46;11.73;;;8.27;;
56999;SDS011;42891;50.006;21.964;2022-07-23T06:45:46;12.15;;;8.13;;
56999;SDS011;42891;50.006;21.964;2022-07-23T06:49:47;12.27;;;9.50;;
56999;SDS011;42891;50.006;21.964;2022-07-23T06:53:47;12.63;;;9.65;;
56999;SDS011;42891;50.006;21.964;2022-07-23T06:57:47;14.23;;;8.73;;
56999;SDS011;42891;50.006;21.964;2022-07-23T07:01:47;12.87;;;9.17;;
56999;SDS011;42891;50.006;21.964;2022-07-23T07:05:48;16.30;;;9.20;;
56999;SDS011;42891;50.006;21.964;2022-07-23T07:09:49;16.10;;;9.77;;
56999;SDS011;42891;50.006;21.964;2022-07-23T07:13:49;12.63;;;9.60;;
56999;SDS011;42891;50.006;21.964;2022-07-23T07:17:50;13.77;;;8.63;;
56999;SDS011;42891;50.006;21.964;2022-07-23T07:21:50;14.52;;;9.23;;
56999;SDS011;42891;50.006;21.964;2022-07-23T07:25:50;27.20;;;8.93;;
56999;SDS011;42891;50.006;21.964;2022-07-23T07:29:51;15.00;;;10.10;;
56999;SDS011;42891;50.006;21.964;2022-07-23T07:33:51;11.73;;;9.23;;
56999;SDS011;42891;50.006;21.964;2022-07-23T07:37:51;12.95;;;9.68;;
56999;SDS011;42891;50.006;21.964;2022-07-23T07:41:52;15.52;;;9.73;;
56999;SDS011;42891;50.006;21.964;2022-07-23T07:45:52;13.40;;;9.50;;
56999;SDS011;42891;50.006;21.964;2022-07-23T07:49:52;11.43;;;9.75;;
56999;SDS011;42891;50.006;21.964;2022-07-23T07:53:53;14.80;;;9.85;;
56999;SDS011;42891;50.006;21.964;2022-07-23T07:57:53;18.48;;;9.57;;
56999;SDS011;42891;50.006;21.964;2022-07-23T08:01:54;13.70;;;9.55;;
56999;SDS011;42891;50.006;21.964;2022-07-23T08:05:54;16.30;;;10.02;;
56999;SDS011;42891;50.006;21.964;2022-07-23T08:09:55;14.80;;;9.40;;
56999;SDS011;42891;50.006;21.964;2022-07-23T08:13:55;14.70;;;10.30;;
56999;SDS011;42891;50.006;21.964;2022-07-23T08:17:56;15.80;;;10.20;;
56999;SDS011;42891;50.006;21.964;2022-07-23T08:21:56;13.32;;;10.65;;
56999;SDS011;42891;50.006;21.964;2022-07-23T08:25:57;11.80;;;9.37;;
56999;SDS011;42891;50.006;21.964;2022-07-23T08:29:59;13.93;;;9.57;;
56999;SDS011;42891;50.006;21.964;2022-07-23T08:33:59;13.20;;;9.03;;
56999;SDS011;42891;50.006;21.964;2022-07-23T08:38:01;10.57;;;9.38;;
56999;SDS011;42891;50.006;21.964;2022-07-23T08:42:03;15.60;;;9.75;;
56999;SDS011;42891;50.006;21.964;2022-07-23T08:46:03;19.33;;;9.98;;
56999;SDS011;42891;50.006;21.964;2022-07-23T08:50:04;13.43;;;9.93;;
56999;SDS011;42891;50.006;21.964;2022-07-23T08:54:06;14.38;;;10.07;;
56999;SDS011;42891;50.006;21.964;2022-07-23T08:58:07;18.27;;;9.95;;
56999;SDS011;42891;50.006;21.964;2022-07-23T09:02:07;11.57;;;9.37;;
56999;SDS011;42891;50.006;21.964;2022-07-23T09:06:08;15.20;;;9.20;;
56999;SDS011;42891;50.006;21.964;2022-07-23T09:10:09;17.05;;;9.57;;
56999;SDS011;42891;50.006;21.964;2022-07-23T09:14:10;13.02;;;9.32;;
56999;SDS011;42891;50.006;21.964;2022-07-23T09:18:11;10.10;;;8.77;;
56999;SDS011;42891;50.006;21.964;2022-07-23T09:22:23;12.15;;;9.40;;
56999;SDS011;42891;50.006;21.964;2022-07-23T09:26:33;10.60;;;8.30;;
56999;SDS011;42891;50.006;21.964;2022-07-23T09:30:38;11.45;;;8.20;;
56999;SDS011;42891;50.006;21.964;2022-07-23T09:34:41;8.10;;;7.07;;
56999;SDS011;42891;50.006;21.964;2022-07-23T09:38:49;9.18;;;6.30;;
56999;SDS011;42891;50.006;21.964;2022-07-23T09:42:56;8.68;;;7.35;;
56999;SDS011;42891;50.006;21.964;2022-07-23T09:46:58;7.80;;;6.78;;
56999;SDS011;42891;50.006;21.964;2022-07-23T09:51:02;8.32;;;6.65;;
56999;SDS011;42891;50.006;21.964;2022-07-23T09:55:05;7.35;;;6.10;;
56999;SDS011;42891;50.006;21.964;2022-07-23T09:59:06;12.20;;;7.00;;
56999;SDS011;42891;50.006;21.964;2022-07-23T10:03:17;9.30;;;6.78;;
56999;SDS011;42891;50.006;21.964;2022-07-23T10:07:19;9.00;;;6.90;;
56999;SDS011;42891;50.006;21.964;2022-07-23T10:11:22;12.38;;;7.50;;
56999;SDS011;42891;50.006;21.964;2022-07-23T10:15:22;11.13;;;7.20;;
56999;SDS011;42891;50.006;21.964;2022-07-23T10:19:23;10.25;;;7.70;;
56999;SDS011;42891;50.006;21.964;2022-07-23T10:24:08;9.38;;;7.70;;
56999;SDS011;42891;50.006;21.964;2022-07-23T10:32:39;10.77;;;7.40;;
56999;SDS011;42891;50.006;21.964;2022-07-23T10:41:00;14.00;;;8.10;;
56999;SDS011;42891;50.006;21.964;2022-07-23T10:45:21;8.90;;;7.38;;
56999;SDS011;42891;50.006;21.964;2022-07-23T10:49:30;11.25;;;7.25;;
56999;SDS011;42891;50.006;21.964;2022-07-23T10:57:51;8.95;;;6.75;;
56999;SDS011;42891;50.006;21.964;2022-07-23T11:01:51;10.73;;;6.68;;
56999;SDS011;42891;50.006;21.964;2022-07-23T11:05:52;8.50;;;7.55;;
56999;SDS011;42891;50.006;21.964;2022-07-23T11:09:52;8.70;;;6.77;;
56999;SDS011;42891;50.006;21.964;2022-07-23T11:13:53;8.70;;;7.13;;
56999;SDS011;42891;50.006;21.964;2022-07-23T11:21:54;8.50;;;7.60;;
56999;SDS011;42891;50.006;21.964;2022-07-23T11:25:56;11.05;;;6.95;;
56999;SDS011;42891;50.006;21.964;2022-07-23T11:29:57;10.20;;;7.07;;
56999;SDS011;42891;50.006;21.964;2022-07-23T11:34:57;7.13;;;6.40;;
56999;SDS011;42891;50.006;21.964;2022-07-23T11:38:33;11.98;;;7.13;;
56999;SDS011;42891;50.006;21.964;2022-07-23T11:42:33;8.70;;;6.90;;
56999;SDS011;42891;50.006;21.964;2022-07-23T11:46:34;9.48;;;6.55;;
56999;SDS011;42891;50.006;21.964;2022-07-23T11:50:35;9.13;;;6.72;;
56999;SDS011;42891;50.006;21.964;2022-07-23T11:54:46;9.20;;;6.32;;
56999;SDS011;42891;50.006;21.964;2022-07-23T11:58:54;7.50;;;6.72;;
56999;SDS011;42891;50.006;21.964;2022-07-23T12:02:57;9.02;;;6.82;;
56999;SDS011;42891;50.006;21.964;2022-07-23T12:07:00;9.85;;;6.70;;
56999;SDS011;42891;50.006;21.964;2022-07-23T12:11:00;9.10;;;6.63;;
56999;SDS011;42891;50.006;21.964;2022-07-23T12:15:01;7.60;;;6.60;;
56999;SDS011;42891;50.006;21.964;2022-07-23T12:19:01;9.80;;;6.55;;
56999;SDS011;42891;50.006;21.964;2022-07-23T12:23:03;8.30;;;6.65;;
56999;SDS011;42891;50.006;21.964;2022-07-23T12:27:10;12.00;;;7.25;;
56999;SDS011;42891;50.006;21.964;2022-07-23T12:31:11;11.88;;;7.20;;
56999;SDS011;42891;50.006;21.964;2022-07-23T12:35:12;13.20;;;6.78;;
56999;SDS011;42891;50.006;21.964;2022-07-23T12:39:28;7.63;;;6.82;;
56999;SDS011;42891;50.006;21.964;2022-07-23T12:43:31;9.20;;;6.97;;
56999;SDS011;42891;50.006;21.964;2022-07-23T12:51:54;9.88;;;5.97;;
56999;SDS011;42891;50.006;21.964;2022-07-23T12:56:08;8.03;;;6.27;;
56999;SDS011;42891;50.006;21.964;2022-07-23T13:00:10;7.82;;;6.68;;
56999;SDS011;42891;50.006;21.964;2022-07-23T13:04:12;8.55;;;6.03;;
56999;SDS011;42891;50.006;21.964;2022-07-23T13:08:14;6.43;;;5.80;;
56999;SDS011;42891;50.006;21.964;2022-07-23T13:12:14;7.77;;;6.20;;
56999;SDS011;42891;50.006;21.964;2022-07-23T13:16:14;8.17;;;6.33;;
56999;SDS011;42891;50.006;21.964;2022-07-23T13:20:15;6.47;;;5.85;;
56999;SDS011;42891;50.006;21.964;2022-07-23T13:24:15;8.43;;;6.20;;
56999;SDS011;42891;50.006;21.964;2022-07-23T13:28:16;7.35;;;6.30;;
56999;SDS011;42891;50.006;21.964;2022-07-23T13:32:17;9.30;;;6.40;;
56999;SDS011;42891;50.006;21.964;2022-07-23T13:36:18;8.73;;;5.63;;
56999;SDS011;42891;50.006;21.964;2022-07-23T13:40:18;7.70;;;6.00;;
56999;SDS011;42891;50.006;21.964;2022-07-23T13:44:18;7.88;;;5.63;;
56999;SDS011;42891;50.006;21.964;2022-07-23T13:48:19;8.97;;;6.20;;
56999;SDS011;42891;50.006;21.964;2022-07-23T13:52:20;8.23;;;5.57;;
56999;SDS011;42891;50.006;21.964;2022-07-23T13:56:20;9.35;;;5.40;;
56999;SDS011;42891;50.006;21.964;2022-07-23T14:00:20;8.23;;;5.83;;
56999;SDS011;42891;50.006;21.964;2022-07-23T14:04:21;7.67;;;6.17;;
56999;SDS011;42891;50.006;21.964;2022-07-23T14:08:22;9.55;;;6.43;;
56999;SDS011;42891;50.006;21.964;2022-07-23T14:12:22;6.57;;;5.32;;
56999;SDS011;42891;50.006;21.964;2022-07-23T14:16:22;6.30;;;5.50;;
56999;SDS011;42891;50.006;21.964;2022-07-23T14:20:23;7.90;;;6.13;;
56999;SDS011;42891;50.006;21.964;2022-07-23T14:24:23;9.95;;;6.03;;
56999;SDS011;42891;50.006;21.964;2022-07-23T14:28:24;7.43;;;6.13;;
56999;SDS011;42891;50.006;21.964;2022-07-23T14:32:24;7.72;;;5.78;;
56999;SDS011;42891;50.006;21.964;2022-07-23T14:36:25;9.00;;;5.88;;
56999;SDS011;42891;50.006;21.964;2022-07-23T14:40:25;7.45;;;5.93;;
56999;SDS011;42891;50.006;21.964;2022-07-23T14:44:26;8.43;;;5.77;;
56999;SDS011;42891;50.006;21.964;2022-07-23T14:48:26;9.77;;;5.87;;
56999;SDS011;42891;50.006;21.964;2022-07-23T14:52:26;9.30;;;6.10;;
56999;SDS011;42891;50.006;21.964;2022-07-23T14:56:27;7.53;;;5.97;;
56999;SDS011;42891;50.006;21.964;2022-07-23T15:00:27;7.00;;;6.30;;
56999;SDS011;42891;50.006;21.964;2022-07-23T15:04:27;6.83;;;5.97;;
56999;SDS011;42891;50.006;21.964;2022-07-23T15:08:28;7.30;;;6.50;;
56999;SDS011;42891;50.006;21.964;2022-07-23T15:12:28;7.03;;;5.70;;
56999;SDS011;42891;50.006;21.964;2022-07-23T15:16:28;7.47;;;6.20;;
56999;SDS011;42891;50.006;21.964;2022-07-23T15:20:29;10.80;;;6.25;;
56999;SDS011;42891;50.006;21.964;2022-07-23T15:24:30;9.25;;;6.47;;
56999;SDS011;42891;50.006;21.964;2022-07-23T15:28:30;7.60;;;6.78;;
56999;SDS011;42891;50.006;21.964;2022-07-23T15:32:30;6.68;;;6.03;;
56999;SDS011;42891;50.006;21.964;2022-07-23T15:36:31;6.63;;;6.03;;
56999;SDS011;42891;50.006;21.964;2022-07-23T15:40:31;9.73;;;6.43;;
56999;SDS011;42891;50.006;21.964;2022-07-23T15:44:31;8.70;;;7.00;;
56999;SDS011;42891;50.006;21.964;2022-07-23T15:48:33;12.13;;;6.10;;
56999;SDS011;42891;50.006;21.964;2022-07-23T15:52:36;6.97;;;6.28;;
56999;SDS011;42891;50.006;21.964;2022-07-23T15:56:36;8.83;;;7.10;;
56999;SDS011;42891;50.006;21.964;2022-07-23T16:00:37;9.13;;;6.50;;
56999;SDS011;42891;50.006;21.964;2022-07-23T16:04:37;8.95;;;7.10;;
56999;SDS011;42891;50.006;21.964;2022-07-23T16:08:37;8.38;;;7.05;;
56999;SDS011;42891;50.006;21.964;2022-07-23T16:12:38;9.80;;;6.83;;
56999;SDS011;42891;50.006;21.964;2022-07-23T16:16:38;10.33;;;6.90;;
56999;SDS011;42891;50.006;21.964;2022-07-23T16:20:40;7.20;;;6.38;;
56999;SDS011;42891;50.006;21.964;2022-07-23T16:24:41;12.63;;;7.10;;
56999;SDS011;42891;50.006;21.964;2022-07-23T16:28:43;10.98;;;6.93;;
56999;SDS011;42891;50.006;21.964;2022-07-23T16:32:44;10.50;;;7.18;;
56999;SDS011;42891;50.006;21.964;2022-07-23T16:36:44;10.85;;;6.50;;
56999;SDS011;42891;50.006;21.964;2022-07-23T16:40:45;12.77;;;8.10;;
56999;SDS011;42891;50.006;21.964;2022-07-23T16:44:45;10.20;;;8.15;;
56999;SDS011;42891;50.006;21.964;2022-07-23T16:48:45;9.80;;;7.83;;
56999;SDS011;42891;50.006;21.964;2022-07-23T16:52:46;10.37;;;7.40;;
56999;SDS011;42891;50.006;21.964;2022-07-23T16:56:46;10.90;;;8.33;;
56999;SDS011;42891;50.006;21.964;2022-07-23T17:00:46;13.27;;;8.30;;
56999;SDS011;42891;50.006;21.964;2022-07-23T17:04:47;14.40;;;7.97;;
56999;SDS011;42891;50.006;21.964;2022-07-23T17:08:47;15.47;;;8.77;;
56999;SDS011;42891;50.006;21.964;2022-07-23T17:12:48;14.27;;;9.47;;
56999;SDS011;42891;50.006;21.964;2022-07-23T17:16:50;23.33;;;11.07;;
56999;SDS011;42891;50.006;21.964;2022-07-23T17:20:51;21.27;;;11.48;;
56999;SDS011;42891;50.006;21.964;2022-07-23T17:24:52;22.13;;;11.50;;
56999;SDS011;42891;50.006;21.964;2022-07-23T17:28:52;21.10;;;9.73;;
56999;SDS011;42891;50.006;21.964;2022-07-23T17:32:53;18.25;;;7.97;;
56999;SDS011;42891;50.006;21.964;2022-07-23T17:36:53;15.57;;;8.53;;
56999;SDS011;42891;50.006;21.964;2022-07-23T17:40:54;11.52;;;7.93;;
56999;SDS011;42891;50.006;21.964;2022-07-23T17:44:54;8.50;;;6.13;;
56999;SDS011;42891;50.006;21.964;2022-07-23T17:48:55;9.87;;;5.10;;
56999;SDS011;42891;50.006;21.964;2022-07-23T17:52:55;10.18;;;4.65;;
56999;SDS011;42891;50.006;21.964;2022-07-23T17:56:56;13.00;;;5.63;;
56999;SDS011;42891;50.006;21.964;2022-07-23T18:00:57;9.88;;;5.53;;
56999;SDS011;42891;50.006;21.964;2022-07-23T18:04:57;10.40;;;5.95;;
56999;SDS011;42891;50.006;21.964;2022-07-23T18:08:57;6.45;;;5.78;;
56999;SDS011;42891;50.006;21.964;2022-07-23T18:12:58;7.70;;;5.63;;
56999;SDS011;42891;50.006;21.964;2022-07-23T18:16:59;9.60;;;5.50;;
56999;SDS011;42891;50.006;21.964;2022-07-23T18:20:59;7.95;;;5.60;;
56999;SDS011;42891;50.006;21.964;2022-07-23T18:24:59;6.83;;;6.03;;
56999;SDS011;42891;50.006;21.964;2022-07-23T18:29:00;7.60;;;5.07;;
56999;SDS011;42891;50.006;21.964;2022-07-23T18:33:00;10.20;;;4.82;;
56999;SDS011;42891;50.006;21.964;2022-07-23T18:37:01;5.57;;;4.30;;
56999;SDS011;42891;50.006;21.964;2022-07-23T18:41:02;4.87;;;3.50;;
56999;SDS011;42891;50.006;21.964;2022-07-23T18:45:10;5.30;;;4.55;;
56999;SDS011;42891;50.006;21.964;2022-07-23T18:49:11;7.20;;;5.70;;
56999;SDS011;42891;50.006;21.964;2022-07-23T18:53:12;10.10;;;5.45;;
56999;SDS011;42891;50.006;21.964;2022-07-23T18:57:12;6.32;;;5.05;;
56999;SDS011;42891;50.006;21.964;2022-07-23T19:01:12;6.65;;;4.80;;
56999;SDS011;42891;50.006;21.964;2022-07-23T19:05:13;6.60;;;4.55;;
56999;SDS011;42891;50.006;21.964;2022-07-23T19:09:13;4.70;;;3.80;;
56999;SDS011;42891;50.006;21.964;2022-07-23T19:13:14;4.83;;;4.03;;
56999;SDS011;42891;50.006;21.964;2022-07-23T19:17:14;4.73;;;3.80;;
56999;SDS011;42891;50.006;21.964;2022-07-23T19:21:14;5.85;;;4.47;;
56999;SDS011;42891;50.006;21.964;2022-07-23T19:25:14;5.70;;;4.83;;
56999;SDS011;42891;50.006;21.964;2022-07-23T19:29:15;4.85;;;4.35;;
56999;SDS011;42891;50.006;21.964;2022-07-23T19:33:15;5.87;;;4.30;;
56999;SDS011;42891;50.006;21.964;2022-07-23T19:37:16;5.88;;;4.50;;
56999;SDS011;42891;50.006;21.964;2022-07-23T19:41:16;6.28;;;4.47;;
56999;SDS011;42891;50.006;21.964;2022-07-23T19:45:17;8.45;;;5.18;;
56999;SDS011;42891;50.006;21.964;2022-07-23T19:49:18;6.03;;;4.93;;
56999;SDS011;42891;50.006;21.964;2022-07-23T19:53:18;6.87;;;4.77;;
56999;SDS011;42891;50.006;21.964;2022-07-23T19:57:18;5.43;;;4.87;;
56999;SDS011;42891;50.006;21.964;2022-07-23T20:01:18;6.43;;;5.03;;
56999;SDS011;42891;50.006;21.964;2022-07-23T20:05:19;8.93;;;5.13;;
56999;SDS011;42891;50.006;21.964;2022-07-23T20:09:20;6.50;;;5.22;;
56999;SDS011;42891;50.006;21.964;2022-07-23T20:13:22;7.63;;;5.20;;
56999;SDS011;42891;50.006;21.964;2022-07-23T20:17:23;6.20;;;5.35;;
56999;SDS011;42891;50.006;21.964;2022-07-23T20:21:23;8.93;;;5.20;;
56999;SDS011;42891;50.006;21.964;2022-07-23T20:25:24;7.35;;;5.70;;
56999;SDS011;42891;50.006;21.964;2022-07-23T20:29:25;6.75;;;5.18;;
56999;SDS011;42891;50.006;21.964;2022-07-23T20:33:26;8.05;;;5.88;;
56999;SDS011;42891;50.006;21.964;2022-07-23T20:37:27;8.15;;;6.10;;
56999;SDS011;42891;50.006;21.964;2022-07-23T20:41:27;9.30;;;6.17;;
56999;SDS011;42891;50.006;21.964;2022-07-23T20:45:28;7.50;;;5.93;;
56999;SDS011;42891;50.006;21.964;2022-07-23T20:49:29;9.13;;;6.40;;
56999;SDS011;42891;50.006;21.964;2022-07-23T20:53:29;8.27;;;5.60;;
56999;SDS011;42891;50.006;21.964;2022-07-23T20:57:29;9.13;;;5.80;;
56999;SDS011;42891;50.006;21.964;2022-07-23T21:01:30;8.45;;;6.20;;
56999;SDS011;42891;50.006;21.964;2022-07-23T21:05:31;7.93;;;5.47;;
56999;SDS011;42891;50.006;21.964;2022-07-23T21:09:31;6.93;;;5.85;;
56999;SDS011;42891;50.006;21.964;2022-07-23T21:13:31;7.20;;;5.57;;
56999;SDS011;42891;50.006;21.964;2022-07-23T21:17:32;6.40;;;5.45;;
56999;SDS011;42891;50.006;21.964;2022-07-23T21:21:32;6.32;;;5.60;;
56999;SDS011;42891;50.006;21.964;2022-07-23T21:25:33;6.25;;;5.40;;
56999;SDS011;42891;50.006;21.964;2022-07-23T21:29:33;11.40;;;6.53;;
56999;SDS011;42891;50.006;21.964;2022-07-23T21:33:34;8.05;;;6.18;;
56999;SDS011;42891;50.006;21.964;2022-07-23T21:37:34;7.18;;;5.85;;
56999;SDS011;42891;50.006;21.964;2022-07-23T21:41:35;8.00;;;6.00;;
56999;SDS011;42891;50.006;21.964;2022-07-23T21:45:35;7.80;;;6.13;;
56999;SDS011;42891;50.006;21.964;2022-07-23T21:49:36;8.63;;;7.25;;
56999;SDS011;42891;50.006;21.964;2022-07-23T21:53:36;7.20;;;6.30;;
56999;SDS011;42891;50.006;21.964;2022-07-23T21:57:36;9.67;;;6.40;;
56999;SDS011;42891;50.006;21.964;2022-07-23T22:01:37;11.75;;;6.55;;
56999;SDS011;42891;50.006;21.964;2022-07-23T22:05:38;9.73;;;6.88;;
56999;SDS011;42891;50.006;21.964;2022-07-23T22:09:38;6.85;;;6.15;;
56999;SDS011;42891;50.006;21.964;2022-07-23T22:13:39;8.02;;;6.32;;
56999;SDS011;42891;50.006;21.964;2022-07-23T22:17:40;11.15;;;6.68;;
56999;SDS011;42891;50.006;21.964;2022-07-23T22:21:41;7.30;;;5.65;;
56999;SDS011;42891;50.006;21.964;2022-07-23T22:25:42;8.10;;;6.15;;
56999;SDS011;42891;50.006;21.964;2022-07-23T22:29:42;8.52;;;5.78;;
56999;SDS011;42891;50.006;21.964;2022-07-23T22:33:42;6.37;;;5.63;;
56999;SDS011;42891;50.006;21.964;2022-07-23T22:37:43;8.60;;;6.03;;
56999;SDS011;42891;50.006;21.964;2022-07-23T22:41:44;7.65;;;5.55;;
56999;SDS011;42891;50.006;21.964;2022-07-23T22:45:45;7.78;;;5.82;;
56999;SDS011;42891;50.006;21.964;2022-07-23T22:49:45;6.93;;;5.67;;
56999;SDS011;42891;50.006;21.964;2022-07-23T22:53:46;6.73;;;5.60;;
56999;SDS011;42891;50.006;21.964;2022-07-23T22:57:46;7.80;;;5.25;;
56999;SDS011;42891;50.006;21.964;2022-07-23T23:01:46;8.70;;;6.40;;
56999;SDS011;42891;50.006;21.964;2022-07-23T23:05:46;10.13;;;6.33;;
56999;SDS011;42891;50.006;21.964;2022-07-23T23:09:47;6.32;;;5.72;;
56999;SDS011;42891;50.006;21.964;2022-07-23T23:13:47;7.82;;;6.20;;
56999;SDS011;42891;50.006;21.964;2022-07-23T23:17:47;7.37;;;5.90;;
56999;SDS011;42891;50.006;21.964;2022-07-23T23:21:48;7.32;;;5.68;;
56999;SDS011;42891;50.006;21.964;2022-07-23T23:25:48;6.67;;;5.97;;
56999;SDS011;42891;50.006;21.964;2022-07-23T23:29:48;6.33;;;5.53;;
56999;SDS011;42891;50.006;21.964;2022-07-23T23:33:49;9.13;;;6.20;;
56999;SDS011;42891;50.006;21.964;2022-07-23T23:37:49;8.90;;;6.35;;
56999;SDS011;42891;50.006;21.964;2022-07-23T23:41:49;7.38;;;5.88;;
56999;SDS011;42891;50.006;21.964;2022-07-23T23:45:50;10.50;;;6.03;;
56999;SDS011;42891;50.006;21.964;2022-07-23T23:49:50;6.97;;;6.03;;
56999;SDS011;42891;50.006;21.964;2022-07-23T23:53:50;8.82;;;6.50;;
56999;SDS011;42891;50.006;21.964;2022-07-23T23:57:51;8.30;;;6.47;;
